Time,TemperatureF,DewpointF,PressureIn,WindDirection,WindDirectionDegrees,WindSpeedMPH,WindSpeedGustMPH,Humidity,HourlyPrecipIn,Conditions,Clouds,dailyrainin,SoftwareType,DateUTC
2013-01-06 00:00:00,38.7,37.9,30.15,ENE,68,0.0,1.0,97,0.01,,SKC,0.00,VWS V14.01,2013-01-06 08:00:00,
2013-01-06 00:15:00,38.6,37.8,30.15,East,90,1.0,2.0,97,0.00,,SKC,0.00,VWS V14.01,2013-01-06 08:15:00,
2013-01-06 00:30:00,38.5,37.7,30.16,East,90,0.0,2.0,97,0.01,,SKC,0.01,VWS V14.01,2013-01-06 08:30:00,
2013-01-06 00:45:00,38.5,37.7,30.15,SE,135,0.0,4.0,97,0.01,,SKC,0.01,VWS V14.01,2013-01-06 08:45:00,
2013-01-06 01:00:00,38.5,37.7,30.15,ESE,112,1.0,4.0,97,0.01,,SKC,0.01,VWS V14.01,2013-01-06 09:00:00,
2013-01-06 01:15:00,38.6,37.8,30.15,ESE,112,0.0,2.0,97,0.01,,SKC,0.01,VWS V14.01,2013-01-06 09:15:00,
2013-01-06 01:30:00,38.6,37.8,30.16,East,90,0.0,2.0,97,0.01,,SKC,0.01,VWS V14.01,2013-01-06 09:30:00,
2013-01-06 01:45:00,38.7,38.2,30.16,SE,135,1.0,4.0,98,0.00,,SKC,0.01,VWS V14.01,2013-01-06 09:45:00,
2013-01-06 02:15:00,38.9,38.1,30.17,SE,135,1.0,4.0,97,0.00,,SKC,0.01,VWS V14.01,2013-01-06 10:15:00,
2013-01-06 02:30:00,39.0,38.2,30.17,SE,135,0.0,4.0,97,0.00,,SKC,0.01,VWS V14.01,2013-01-06 10:30:00,
2013-01-06 02:45:00,39.1,38.3,30.17,SE,135,0.0,2.0,97,0.00,,SKC,0.01,VWS V14.01,2013-01-06 10:45:00,
2013-01-06 03:00:00,39.2,38.4,30.17,East,90,0.0,2.0,97,0.00,,SKC,0.01,VWS V14.01,2013-01-06 11:00:00,
2013-01-06 03:15:00,39.3,38.5,30.17,ENE,68,1.0,5.0,97,0.00,,SKC,0.01,VWS V14.01,2013-01-06 11:15:00,
2013-01-06 03:30:00,39.4,38.6,30.17,ESE,112,0.0,4.0,97,0.00,,SKC,0.01,VWS V14.01,2013-01-06 11:30:00,
2013-01-06 03:45:00,39.4,38.6,30.16,SE,135,0.0,4.0,97,0.00,,SKC,0.01,VWS V14.01,2013-01-06 11:45:00,
2013-01-06 04:00:00,39.5,38.7,30.16,SE,135,1.0,5.0,97,0.00,,SKC,0.01,VWS V14.01,2013-01-06 12:00:00,
2013-01-06 04:15:00,39.6,38.8,30.16,SE,135,0.0,5.0,97,0.00,,SKC,0.01,VWS V14.01,2013-01-06 12:15:00,
2013-01-06 04:30:00,39.7,38.9,30.16,SSE,158,0.0,2.0,97,0.00,,SKC,0.01,VWS V14.01,2013-01-06 12:30:00,
2013-01-06 04:45:00,39.6,38.8,30.16,SSE,158,0.0,0.0,97,0.00,,SKC,0.01,VWS V14.01,2013-01-06 12:45:00,
2013-01-06 05:00:00,39.7,38.9,30.15,ESE,112,0.0,1.0,97,0.00,,SKC,0.01,VWS V14.01,2013-01-06 13:00:00,
2013-01-06 05:15:00,39.9,38.8,30.15,South,180,0.0,2.0,96,0.00,,SKC,0.01,VWS V14.01,2013-01-06 13:15:00,
2013-01-06 05:30:00,39.7,38.7,30.15,South,180,0.0,0.0,96,0.00,,SKC,0.01,VWS V14.01,2013-01-06 13:30:00,
2013-01-06 05:45:00,39.6,38.8,30.15,South,180,0.0,0.0,97,0.00,,SKC,0.01,VWS V14.01,2013-01-06 13:45:00,
2013-01-06 06:00:00,39.6,38.8,30.15,ENE,68,0.0,2.0,97,0.00,,SKC,0.01,VWS V14.01,2013-01-06 14:00:00,
2013-01-06 06:15:00,39.7,38.9,30.15,ENE,68,0.0,0.0,97,0.00,,SKC,0.01,VWS V14.01,2013-01-06 14:15:00,
2013-01-06 06:30:00,39.7,38.9,30.15,ENE,68,0.0,0.0,97,0.00,,SKC,0.01,VWS V14.01,2013-01-06 14:30:00,
2013-01-06 06:45:00,39.7,38.9,30.15,ENE,68,0.0,0.0,97,0.00,,SKC,0.01,VWS V14.01,2013-01-06 14:45:00,
2013-01-06 07:00:00,39.7,38.9,30.15,ENE,68,0.0,0.0,97,0.00,,SKC,0.01,VWS V14.01,2013-01-06 15:00:00,
2013-01-06 07:15:00,39.6,38.8,30.14,ENE,68,0.0,1.0,97,0.00,,SKC,0.01,VWS V14.01,2013-01-06 15:15:00,
2013-01-06 07:30:00,39.6,38.8,30.15,NE,45,0.0,2.0,97,0.00,,SKC,0.01,VWS V14.01,2013-01-06 15:30:00,
2013-01-06 07:45:00,39.6,38.8,30.16,NE,45,0.0,1.0,97,0.00,,SKC,0.01,VWS V14.01,2013-01-06 15:45:00,
2013-01-06 08:00:00,39.7,38.9,30.16,ENE,68,0.0,2.0,97,0.00,,SKC,0.01,VWS V14.01,2013-01-06 16:00:00,
2013-01-06 08:15:00,40.1,39.0,30.16,ESE,112,1.0,7.0,96,0.00,,SKC,0.01,VWS V14.01,2013-01-06 16:15:00,
2013-01-06 08:30:00,40.2,38.9,30.17,SE,135,1.0,4.0,95,0.00,,SKC,0.01,VWS V14.01,2013-01-06 16:30:00,
2013-01-06 08:45:00,40.1,38.8,30.17,ESE,112,0.0,2.0,95,0.00,,SKC,0.01,VWS V14.01,2013-01-06 16:45:00,
2013-01-06 09:00:00,40.4,39.1,30.17,SE,135,1.0,5.0,95,0.00,,SKC,0.01,VWS V14.01,2013-01-06 17:00:00,
2013-01-06 09:15:00,40.8,39.2,30.17,SE,135,1.0,4.0,94,0.00,,SKC,0.01,VWS V14.01,2013-01-06 17:15:00,
2013-01-06 09:30:00,41.3,39.4,30.17,SE,135,1.0,6.0,93,0.00,,SKC,0.01,VWS V14.01,2013-01-06 17:30:00,
2013-01-06 09:45:00,41.5,39.6,30.18,East,90,0.0,3.0,93,0.00,,SKC,0.01,VWS V14.01,2013-01-06 17:45:00,
2013-01-06 10:00:00,41.6,39.7,30.17,East,90,0.0,2.0,93,0.00,,SKC,0.01,VWS V14.01,2013-01-06 18:00:00,
2013-01-06 10:15:00,42.0,39.8,30.18,East,90,1.0,5.0,92,0.00,,SKC,0.01,VWS V14.01,2013-01-06 18:15:00,
2013-01-06 10:30:00,42.4,40.2,30.18,SE,135,1.0,6.0,92,0.00,,SKC,0.01,VWS V14.01,2013-01-06 18:30:00,
2013-01-06 10:45:00,42.8,40.4,30.18,SE,135,1.0,7.0,91,0.00,,SKC,0.01,VWS V14.01,2013-01-06 18:45:00,
2013-01-06 11:00:00,43.2,40.8,30.17,ESE,112,1.0,6.0,91,0.00,,SKC,0.01,VWS V14.01,2013-01-06 19:00:00,
2013-01-06 11:15:00,43.6,40.6,30.16,SE,135,1.0,6.0,89,0.00,,SKC,0.01,VWS V14.01,2013-01-06 19:15:00,
2013-01-06 11:30:00,43.7,41.0,30.16,East,90,1.0,4.0,90,0.00,,SKC,0.01,VWS V14.01,2013-01-06 19:30:00,
2013-01-06 11:45:00,44.1,40.8,30.15,SE,135,2.0,9.0,88,0.00,,SKC,0.01,VWS V14.01,2013-01-06 19:45:00,
2013-01-06 12:00:00,44.2,40.9,30.14,SE,135,1.0,5.0,88,0.00,,SKC,0.01,VWS V14.01,2013-01-06 20:00:00,
2013-01-06 12:15:00,44.5,40.6,30.13,SE,135,2.0,8.0,86,0.00,,SKC,0.01,VWS V14.01,2013-01-06 20:15:00,
2013-01-06 12:30:00,44.8,41.2,30.13,SE,135,2.0,11.0,87,0.00,,SKC,0.01,VWS V14.01,2013-01-06 20:30:00,
2013-01-06 12:45:00,44.8,40.6,30.13,SE,135,2.0,7.0,85,0.00,,SKC,0.01,VWS V14.01,2013-01-06 20:45:00,
2013-01-06 13:00:00,44.7,40.5,30.12,SE,135,2.0,9.0,85,0.00,,SKC,0.01,VWS V14.01,2013-01-06 21:00:00,
2013-01-06 13:15:00,44.7,40.8,30.13,SE,135,1.0,11.0,86,0.00,,SKC,0.01,VWS V14.01,2013-01-06 21:15:00,
2013-01-06 13:30:00,44.9,40.7,30.12,SSE,158,1.0,8.0,85,0.00,,SKC,0.01,VWS V14.01,2013-01-06 21:30:00,
2013-01-06 13:45:00,45.0,40.5,30.12,SE,135,1.0,7.0,84,0.00,,SKC,0.01,VWS V14.01,2013-01-06 21:45:00,
2013-01-06 14:00:00,44.9,40.7,30.11,SE,135,3.0,15.0,85,0.00,,SKC,0.01,VWS V14.01,2013-01-06 22:00:00,
2013-01-06 14:15:00,44.8,40.6,30.12,SSE,158,3.0,7.0,85,0.00,,SKC,0.01,VWS V14.01,2013-01-06 22:15:00,
2013-01-06 14:30:00,44.6,40.7,30.12,SE,135,1.0,7.0,86,0.00,,SKC,0.01,VWS V14.01,2013-01-06 22:30:00,
2013-01-06 14:45:00,44.3,40.7,30.12,SE,135,1.0,7.0,87,0.00,,SKC,0.01,VWS V14.01,2013-01-06 22:45:00,
2013-01-06 15:00:00,43.8,40.8,30.11,SE,135,1.0,7.0,89,0.01,,SKC,0.02,VWS V14.01,2013-01-06 23:00:00,
2013-01-06 15:15:00,43.3,41.1,30.11,East,90,1.0,5.0,92,0.01,,SKC,0.02,VWS V14.01,2013-01-06 23:15:00,
2013-01-06 15:30:00,42.8,40.9,30.10,SE,135,1.0,6.0,93,0.01,,SKC,0.02,VWS V14.01,2013-01-06 23:30:00,
2013-01-06 15:45:00,42.4,40.8,30.10,SE,135,1.0,6.0,94,0.02,,SKC,0.03,VWS V14.01,2013-01-06 23:45:00,
2013-01-06 16:00:00,42.2,40.6,30.11,SE,135,1.0,6.0,94,0.03,,SKC,0.04,VWS V14.01,2013-01-07 00:00:00,
2013-01-06 16:15:00,42.0,40.7,30.11,East,90,1.0,7.0,95,0.03,,SKC,0.05,VWS V14.01,2013-01-07 00:15:00,
2013-01-06 16:30:00,41.7,40.4,30.10,East,90,1.0,6.0,95,0.04,,SKC,0.06,VWS V14.01,2013-01-07 00:30:00,
2013-01-06 16:45:00,41.4,40.3,30.10,ENE,68,1.0,5.0,96,0.04,,SKC,0.06,VWS V14.01,2013-01-07 00:45:00,
2013-01-06 17:00:00,41.3,40.2,30.09,East,90,2.0,7.0,96,0.03,,SKC,0.06,VWS V14.01,2013-01-07 01:00:00,
2013-01-06 17:15:00,41.3,40.2,30.08,ENE,68,2.0,12.0,96,0.02,,SKC,0.06,VWS V14.01,2013-01-07 01:15:00,
2013-01-06 17:30:00,41.2,40.2,30.08,ENE,68,2.0,8.0,96,0.02,,SKC,0.07,VWS V14.01,2013-01-07 01:30:00,
2013-01-06 17:45:00,41.0,40.0,30.08,East,90,1.0,5.0,96,0.02,,SKC,0.08,VWS V14.01,2013-01-07 01:45:00,
2013-01-06 18:00:00,40.9,39.8,30.08,ENE,68,1.0,3.0,96,0.03,,SKC,0.09,VWS V14.01,2013-01-07 02:00:00,
2013-01-06 18:15:00,40.9,39.8,30.08,SE,135,1.0,6.0,96,0.05,,SKC,0.11,VWS V14.01,2013-01-07 02:15:00,
2013-01-06 18:30:00,41.0,40.0,30.08,SW,225,0.0,2.0,96,0.06,,SKC,0.12,VWS V14.01,2013-01-07 02:30:00,
2013-01-06 18:45:00,40.9,39.8,30.08,ENE,68,0.0,3.0,96,0.06,,SKC,0.13,VWS V14.01,2013-01-07 02:45:00,
2013-01-06 19:00:00,40.8,40.0,30.08,ESE,112,0.0,5.0,97,0.05,,SKC,0.13,VWS V14.01,2013-01-07 03:00:00,
2013-01-06 19:15:00,40.8,40.0,30.08,ENE,68,1.0,5.0,97,0.05,,SKC,0.14,VWS V14.01,2013-01-07 03:15:00,
2013-01-06 19:30:00,40.7,39.9,30.07,ENE,68,1.0,6.0,97,0.04,,SKC,0.15,VWS V14.01,2013-01-07 03:30:00,
2013-01-06 19:45:00,40.7,39.9,30.07,ENE,68,2.0,8.0,97,0.04,,SKC,0.16,VWS V14.01,2013-01-07 03:45:00,
2013-01-06 20:00:00,40.7,39.9,30.07,ENE,68,1.0,6.0,97,0.04,,SKC,0.17,VWS V14.01,2013-01-07 04:00:00,
2013-01-06 20:15:00,40.6,39.8,30.07,ENE,68,1.0,5.0,97,0.05,,SKC,0.18,VWS V14.01,2013-01-07 04:15:00,
2013-01-06 20:30:00,40.5,39.7,30.07,ENE,68,1.0,4.0,97,0.05,,SKC,0.19,VWS V14.01,2013-01-07 04:30:00,
2013-01-06 20:45:00,40.4,39.6,30.06,East,90,1.0,5.0,97,0.06,,SKC,0.21,VWS V14.01,2013-01-07 04:45:00,
2013-01-06 21:00:00,40.2,39.4,30.06,ENE,68,2.0,6.0,97,0.06,,SKC,0.22,VWS V14.01,2013-01-07 05:00:00,
2013-01-06 21:15:00,39.9,39.1,30.05,ENE,68,2.0,8.0,97,0.07,,SKC,0.24,VWS V14.01,2013-01-07 05:15:00,
2013-01-06 21:30:00,39.7,38.9,30.04,ENE,68,1.0,11.0,97,0.07,,SKC,0.25,VWS V14.01,2013-01-07 05:30:00,
2013-01-06 21:45:00,39.6,38.8,30.03,East,90,1.0,6.0,97,0.07,,SKC,0.26,VWS V14.01,2013-01-07 05:45:00,
2013-01-06 22:00:00,39.5,38.7,30.02,SE,135,0.0,5.0,97,0.05,,SKC,0.26,VWS V14.01,2013-01-07 06:00:00,
2013-01-06 22:15:00,39.4,38.6,30.03,ENE,68,0.0,4.0,97,0.04,,SKC,0.26,VWS V14.01,2013-01-07 06:15:00,
2013-01-06 22:30:00,39.3,38.5,30.02,ENE,68,0.0,2.0,97,0.03,,SKC,0.27,VWS V14.01,2013-01-07 06:30:00,
2013-01-06 22:45:00,39.3,38.8,30.02,ENE,68,1.0,7.0,98,0.03,,SKC,0.28,VWS V14.01,2013-01-07 06:45:00,
2013-01-06 23:00:00,39.2,38.7,30.01,East,90,1.0,4.0,98,0.02,,SKC,0.28,VWS V14.01,2013-01-07 07:00:00,
2013-01-06 23:30:00,39.3,38.8,30.00,ESE,112,1.0,6.0,98,0.04,,SKC,0.30,VWS V14.01,2013-01-07 07:30:00,
2013-01-06 23:45:00,39.5,39.0,30.00,ENE,68,1.0,6.0,98,0.04,,SKC,0.31,VWS V14.01,2013-01-07 07:45:00,